This is the latest recevied weather packets stored in our database for station/object DL1ONI-13. If no packets are shown the sender has not sent any weather packets the latest 10 day(s).
| Time | Temp. | Humidity | Pressure | Rain* | Wind** | Luminosity | Snow |
|---|---|---|---|---|---|---|---|
| 1777373438 | 18.89° C | 27% | 1023 hPa | 0 mm | - | - | - |
| 1777369221 | 17.22° C | 28% | 1023.4 hPa | 0 mm | - | - | - |
| 1777367422 | 16.11° C | 30% | 1023.4 hPa | 0 mm | - | - | - |
| 1777365024 | 15° C | 31% | 1023.1 hPa | 0 mm | - | - | - |
| 1777359625 | 12.22° C | 35% | 1023 hPa | 0 mm | - | - | - |
| 1777351819 | 7.22° C | 38% | 1021 hPa | 0 mm | - | - | - |
| 1777351219 | 7.22° C | 38% | 1021 hPa | 0 mm | - | - | - |
| 1777346422 | 7.22° C | 37% | 1022.1 hPa | 0 mm | - | - | - |
| 1777345222 | 7.78° C | 36% | 1022.1 hPa | 0 mm | - | - | - |
| 1777342223 | 8.33° C | 35% | 1022.4 hPa | 0 mm | - | - | - |
| 1777340424 | 8.33° C | 35% | 1022.4 hPa | 0 mm | - | - | - |
| 1777336836 | 8.89° C | 37% | 1022.3 hPa | 0 mm | - | - | - |
| 1777332038 | 8.33° C | 38% | 1022.4 hPa | 0 mm | - | - | - |
| 1777326625 | 9.44° C | 36% | 1022.5 hPa | 0 mm | - | - | - |
| 1777320018 | 12.78° C | 31% | 1021.9 hPa | 0 mm | - | - | - |
| 1777318838 | 12.78° C | 29% | 1021.9 hPa | 0 mm | - | - | - |
| 1777317619 | 13.89° C | 28% | 1021.8 hPa | 0 mm | - | - | - |
| 1777316439 | 14.44° C | 26% | 1021.8 hPa | 0 mm | - | - | - |
| 1777315838 | 15° C | 25% | 1021.5 hPa | 0 mm | - | - | - |
| 1777312818 | 17.22° C | 25% | 1021.7 hPa | 0 mm | - | - | - |
| 1777310418 | 18.89° C | 25% | 1021.7 hPa | 0 mm | - | - | - |
| 1777303245 | 21.11° C | 25% | 1022 hPa | 0 mm | - | - | - |
| 1777299023 | 21.11° C | 25% | 1023.9 hPa | 0 mm | - | - | - |
| 1777298423 | 21.11° C | 25% | 1023.9 hPa | 0 mm | - | - | - |
| 1777295423 | 20.56° C | 25% | 1024.4 hPa | 0 mm | - | - | - |
* Rain latest hour (hover to see other rain measurements)
** Current wind speed in m/s (hover to see current wind gust speed)